sensor_id;sensor_type;location;lat;lon;timestamp;temperature;humidity
9949;DHT22;5013;51.840;8.276;2023-02-18T00:02:02;9.30;99.90
9949;DHT22;5013;51.840;8.276;2023-02-18T00:04:28;9.30;99.90
9949;DHT22;5013;51.840;8.276;2023-02-18T00:06:54;9.40;99.90
9949;DHT22;5013;51.840;8.276;2023-02-18T00:09:19;9.30;99.90
9949;DHT22;5013;51.840;8.276;2023-02-18T00:11:45;9.30;99.90
9949;DHT22;5013;51.840;8.276;2023-02-18T00:14:15;9.30;99.90
9949;DHT22;5013;51.840;8.276;2023-02-18T00:16:41;9.40;99.90
9949;DHT22;5013;51.840;8.276;2023-02-18T00:19:10;9.30;99.90
9949;DHT22;5013;51.840;8.276;2023-02-18T00:21:36;9.40;99.90
9949;DHT22;5013;51.840;8.276;2023-02-18T00:24:04;9.40;99.90
9949;DHT22;5013;51.840;8.276;2023-02-18T00:26:30;9.40;99.90
9949;DHT22;5013;51.840;8.276;2023-02-18T00:28:56;9.40;99.90
9949;DHT22;5013;51.840;8.276;2023-02-18T00:31:25;9.40;99.90
9949;DHT22;5013;51.840;8.276;2023-02-18T00:33:51;9.50;99.90
9949;DHT22;5013;51.840;8.276;2023-02-18T00:36:18;9.50;99.90
9949;DHT22;5013;51.840;8.276;2023-02-18T00:38:53;9.50;99.90
9949;DHT22;5013;51.840;8.276;2023-02-18T00:41:20;9.50;99.90
9949;DHT22;5013;51.840;8.276;2023-02-18T00:43:46;9.50;99.90
9949;DHT22;5013;51.840;8.276;2023-02-18T00:46:12;9.50;99.90
9949;DHT22;5013;51.840;8.276;2023-02-18T00:48:38;9.50;99.90
9949;DHT22;5013;51.840;8.276;2023-02-18T00:51:05;9.50;99.90
9949;DHT22;5013;51.840;8.276;2023-02-18T00:53:31;9.50;99.90
9949;DHT22;5013;51.840;8.276;2023-02-18T00:55:57;9.50;99.90
9949;DHT22;5013;51.840;8.276;2023-02-18T00:58:23;9.50;99.90
9949;DHT22;5013;51.840;8.276;2023-02-18T01:00:49;9.60;99.90
9949;DHT22;5013;51.840;8.276;2023-02-18T01:03:15;9.60;99.90
9949;DHT22;5013;51.840;8.276;2023-02-18T01:05:41;9.60;99.90
9949;DHT22;5013;51.840;8.276;2023-02-18T01:08:08;9.60;99.90
9949;DHT22;5013;51.840;8.276;2023-02-18T01:10:35;9.60;99.90
9949;DHT22;5013;51.840;8.276;2023-02-18T01:13:01;9.60;99.90
9949;DHT22;5013;51.840;8.276;2023-02-18T01:15:29;9.60;99.90
9949;DHT22;5013;51.840;8.276;2023-02-18T01:17:54;9.70;99.90
9949;DHT22;5013;51.840;8.276;2023-02-18T01:20:20;9.70;99.90
9949;DHT22;5013;51.840;8.276;2023-02-18T01:22:46;9.70;99.90
9949;DHT22;5013;51.840;8.276;2023-02-18T01:25:12;9.70;99.90
9949;DHT22;5013;51.840;8.276;2023-02-18T01:27:37;9.70;99.90
9949;DHT22;5013;51.840;8.276;2023-02-18T01:30:04;9.70;99.90
9949;DHT22;5013;51.840;8.276;2023-02-18T01:32:30;9.70;99.90
9949;DHT22;5013;51.840;8.276;2023-02-18T01:34:56;9.80;99.90
9949;DHT22;5013;51.840;8.276;2023-02-18T01:37:21;9.80;99.90
9949;DHT22;5013;51.840;8.276;2023-02-18T01:39:47;9.80;99.90
9949;DHT22;5013;51.840;8.276;2023-02-18T01:42:18;9.80;99.90
9949;DHT22;5013;51.840;8.276;2023-02-18T01:44:46;9.80;99.90
9949;DHT22;5013;51.840;8.276;2023-02-18T01:47:12;9.90;99.90
9949;DHT22;5013;51.840;8.276;2023-02-18T01:49:38;9.90;99.90
9949;DHT22;5013;51.840;8.276;2023-02-18T01:52:08;9.90;99.90
9949;DHT22;5013;51.840;8.276;2023-02-18T01:54:39;9.90;99.90
9949;DHT22;5013;51.840;8.276;2023-02-18T01:59:38;10.00;99.90
9949;DHT22;5013;51.840;8.276;2023-02-18T02:02:06;10.00;99.90
9949;DHT22;5013;51.840;8.276;2023-02-18T02:04:33;10.00;99.90
9949;DHT22;5013;51.840;8.276;2023-02-18T02:06:59;10.00;99.90
9949;DHT22;5013;51.840;8.276;2023-02-18T02:09:27;10.00;99.90
9949;DHT22;5013;51.840;8.276;2023-02-18T02:30:54;10.10;99.90
9949;DHT22;5013;51.840;8.276;2023-02-18T02:46:39;10.30;99.90
9949;DHT22;5013;51.840;8.276;2023-02-18T02:52:19;10.20;99.90
9949;DHT22;5013;51.840;8.276;2023-02-18T02:54:45;10.20;99.90
9949;DHT22;5013;51.840;8.276;2023-02-18T02:59:47;10.10;99.90
9949;DHT22;5013;51.840;8.276;2023-02-18T03:08:11;10.20;99.90
9949;DHT22;5013;51.840;8.276;2023-02-18T03:18:36;10.10;99.90
9949;DHT22;5013;51.840;8.276;2023-02-18T03:23:50;10.20;99.90
9949;DHT22;5013;51.840;8.276;2023-02-18T03:26:18;10.20;99.90
9949;DHT22;5013;51.840;8.276;2023-02-18T03:28:46;10.20;99.90
9949;DHT22;5013;51.840;8.276;2023-02-18T03:31:17;10.30;99.90
9949;DHT22;5013;51.840;8.276;2023-02-18T03:34:06;10.30;99.90
9949;DHT22;5013;51.840;8.276;2023-02-18T03:36:33;10.30;99.90
9949;DHT22;5013;51.840;8.276;2023-02-18T03:39:08;10.30;99.90
9949;DHT22;5013;51.840;8.276;2023-02-18T03:41:35;10.30;99.90
9949;DHT22;5013;51.840;8.276;2023-02-18T03:44:04;10.30;99.90
9949;DHT22;5013;51.840;8.276;2023-02-18T03:46:31;10.30;99.90
9949;DHT22;5013;51.840;8.276;2023-02-18T03:48:58;10.30;99.90
9949;DHT22;5013;51.840;8.276;2023-02-18T03:51:23;10.30;99.90
9949;DHT22;5013;51.840;8.276;2023-02-18T03:53:49;10.30;99.90
9949;DHT22;5013;51.840;8.276;2023-02-18T03:56:15;10.30;99.90
9949;DHT22;5013;51.840;8.276;2023-02-18T03:58:40;10.30;99.90
9949;DHT22;5013;51.840;8.276;2023-02-18T04:01:06;10.30;99.90
9949;DHT22;5013;51.840;8.276;2023-02-18T04:03:32;10.30;99.90
9949;DHT22;5013;51.840;8.276;2023-02-18T04:05:57;10.30;99.90
9949;DHT22;5013;51.840;8.276;2023-02-18T04:08:23;10.30;99.90
9949;DHT22;5013;51.840;8.276;2023-02-18T04:10:49;10.30;99.90
9949;DHT22;5013;51.840;8.276;2023-02-18T04:13:15;10.30;99.90
9949;DHT22;5013;51.840;8.276;2023-02-18T04:15:42;10.30;99.90
9949;DHT22;5013;51.840;8.276;2023-02-18T04:18:08;10.30;99.90
9949;DHT22;5013;51.840;8.276;2023-02-18T04:20:34;10.30;99.90
9949;DHT22;5013;51.840;8.276;2023-02-18T04:22:59;10.30;99.90
9949;DHT22;5013;51.840;8.276;2023-02-18T04:25:25;10.30;99.90
9949;DHT22;5013;51.840;8.276;2023-02-18T04:27:50;10.40;99.90
9949;DHT22;5013;51.840;8.276;2023-02-18T04:30:16;10.30;99.90
9949;DHT22;5013;51.840;8.276;2023-02-18T04:32:42;10.30;99.90
9949;DHT22;5013;51.840;8.276;2023-02-18T04:35:07;10.40;99.90
9949;DHT22;5013;51.840;8.276;2023-02-18T04:37:33;10.40;99.90
9949;DHT22;5013;51.840;8.276;2023-02-18T04:39:58;10.40;99.90
9949;DHT22;5013;51.840;8.276;2023-02-18T04:42:24;10.30;99.90
9949;DHT22;5013;51.840;8.276;2023-02-18T04:44:50;10.30;99.90
9949;DHT22;5013;51.840;8.276;2023-02-18T04:47:15;10.40;99.90
9949;DHT22;5013;51.840;8.276;2023-02-18T04:49:41;10.40;99.90
9949;DHT22;5013;51.840;8.276;2023-02-18T04:52:06;10.30;99.90
9949;DHT22;5013;51.840;8.276;2023-02-18T04:54:32;10.30;99.90
9949;DHT22;5013;51.840;8.276;2023-02-18T04:56:58;10.40;99.90
9949;DHT22;5013;51.840;8.276;2023-02-18T04:59:23;10.40;99.90
9949;DHT22;5013;51.840;8.276;2023-02-18T05:01:49;10.40;99.90
9949;DHT22;5013;51.840;8.276;2023-02-18T05:04:15;10.30;99.90
9949;DHT22;5013;51.840;8.276;2023-02-18T05:06:42;10.40;99.90
9949;DHT22;5013;51.840;8.276;2023-02-18T05:09:08;10.30;99.90
9949;DHT22;5013;51.840;8.276;2023-02-18T05:11:33;10.30;99.90
9949;DHT22;5013;51.840;8.276;2023-02-18T05:13:59;10.40;99.90
9949;DHT22;5013;51.840;8.276;2023-02-18T05:16:24;10.40;99.90
9949;DHT22;5013;51.840;8.276;2023-02-18T05:18:50;10.40;99.90
9949;DHT22;5013;51.840;8.276;2023-02-18T05:21:16;10.40;99.90
9949;DHT22;5013;51.840;8.276;2023-02-18T05:23:41;10.40;99.90
9949;DHT22;5013;51.840;8.276;2023-02-18T05:26:07;10.40;99.90
9949;DHT22;5013;51.840;8.276;2023-02-18T05:28:32;10.40;99.90
9949;DHT22;5013;51.840;8.276;2023-02-18T05:30:58;10.40;99.90
9949;DHT22;5013;51.840;8.276;2023-02-18T05:33:24;10.40;99.90
9949;DHT22;5013;51.840;8.276;2023-02-18T05:35:49;10.40;99.90
9949;DHT22;5013;51.840;8.276;2023-02-18T05:38:15;10.40;99.90
9949;DHT22;5013;51.840;8.276;2023-02-18T05:40:40;10.40;99.90
9949;DHT22;5013;51.840;8.276;2023-02-18T05:43:06;10.40;99.90
9949;DHT22;5013;51.840;8.276;2023-02-18T05:45:31;10.40;99.90
9949;DHT22;5013;51.840;8.276;2023-02-18T05:47:57;10.40;99.90
9949;DHT22;5013;51.840;8.276;2023-02-18T05:50:23;10.40;99.90
9949;DHT22;5013;51.840;8.276;2023-02-18T05:52:48;10.40;99.90
9949;DHT22;5013;51.840;8.276;2023-02-18T05:55:14;10.40;99.90
9949;DHT22;5013;51.840;8.276;2023-02-18T05:57:40;10.40;99.90
9949;DHT22;5013;51.840;8.276;2023-02-18T06:00:06;10.40;99.90
9949;DHT22;5013;51.840;8.276;2023-02-18T06:02:34;10.40;99.90
9949;DHT22;5013;51.840;8.276;2023-02-18T06:04:59;10.40;99.90
9949;DHT22;5013;51.840;8.276;2023-02-18T06:07:25;10.40;99.90
9949;DHT22;5013;51.840;8.276;2023-02-18T06:09:50;10.40;99.90
9949;DHT22;5013;51.840;8.276;2023-02-18T06:12:16;10.40;99.90
9949;DHT22;5013;51.840;8.276;2023-02-18T06:14:42;10.40;99.90
9949;DHT22;5013;51.840;8.276;2023-02-18T06:17:08;10.40;99.90
9949;DHT22;5013;51.840;8.276;2023-02-18T06:19:34;10.50;99.90
9949;DHT22;5013;51.840;8.276;2023-02-18T06:22:00;10.40;99.90
9949;DHT22;5013;51.840;8.276;2023-02-18T06:24:25;10.40;99.90
9949;DHT22;5013;51.840;8.276;2023-02-18T06:26:51;10.40;99.90
9949;DHT22;5013;51.840;8.276;2023-02-18T06:29:16;10.40;99.90
9949;DHT22;5013;51.840;8.276;2023-02-18T06:31:42;10.40;99.90
9949;DHT22;5013;51.840;8.276;2023-02-18T06:34:07;10.40;99.90
9949;DHT22;5013;51.840;8.276;2023-02-18T06:36:33;10.40;99.90
9949;DHT22;5013;51.840;8.276;2023-02-18T06:39:01;10.40;99.90
9949;DHT22;5013;51.840;8.276;2023-02-18T06:41:26;10.40;99.90
9949;DHT22;5013;51.840;8.276;2023-02-18T06:43:52;10.40;99.90
9949;DHT22;5013;51.840;8.276;2023-02-18T06:46:18;10.40;99.90
9949;DHT22;5013;51.840;8.276;2023-02-18T06:48:43;10.40;99.90
9949;DHT22;5013;51.840;8.276;2023-02-18T06:51:09;10.40;99.90
9949;DHT22;5013;51.840;8.276;2023-02-18T06:53:34;10.40;99.90
9949;DHT22;5013;51.840;8.276;2023-02-18T06:56:00;10.40;99.90
9949;DHT22;5013;51.840;8.276;2023-02-18T06:58:25;10.40;99.90
9949;DHT22;5013;51.840;8.276;2023-02-18T07:00:51;10.40;99.90
9949;DHT22;5013;51.840;8.276;2023-02-18T07:03:17;10.40;99.90
9949;DHT22;5013;51.840;8.276;2023-02-18T07:05:42;10.40;99.90
9949;DHT22;5013;51.840;8.276;2023-02-18T07:08:08;10.40;99.90
9949;DHT22;5013;51.840;8.276;2023-02-18T07:10:34;10.40;99.90
9949;DHT22;5013;51.840;8.276;2023-02-18T07:13:00;10.40;99.90
9949;DHT22;5013;51.840;8.276;2023-02-18T07:15:26;10.40;99.90
9949;DHT22;5013;51.840;8.276;2023-02-18T07:17:52;10.40;99.90
9949;DHT22;5013;51.840;8.276;2023-02-18T07:20:20;10.30;99.90
9949;DHT22;5013;51.840;8.276;2023-02-18T07:22:46;10.40;99.90
9949;DHT22;5013;51.840;8.276;2023-02-18T07:25:12;10.40;99.90
9949;DHT22;5013;51.840;8.276;2023-02-18T07:27:38;10.40;99.90
9949;DHT22;5013;51.840;8.276;2023-02-18T07:30:04;10.40;99.90
9949;DHT22;5013;51.840;8.276;2023-02-18T07:32:30;10.40;99.90
9949;DHT22;5013;51.840;8.276;2023-02-18T07:34:56;10.40;99.90
9949;DHT22;5013;51.840;8.276;2023-02-18T07:37:21;10.40;99.90
9949;DHT22;5013;51.840;8.276;2023-02-18T07:39:47;10.40;99.90
9949;DHT22;5013;51.840;8.276;2023-02-18T07:42:13;10.40;99.90
9949;DHT22;5013;51.840;8.276;2023-02-18T07:44:39;10.40;99.90
9949;DHT22;5013;51.840;8.276;2023-02-18T07:47:06;10.50;99.90
9949;DHT22;5013;51.840;8.276;2023-02-18T07:49:33;10.50;99.90
9949;DHT22;5013;51.840;8.276;2023-02-18T07:51:59;10.50;99.90
9949;DHT22;5013;51.840;8.276;2023-02-18T07:54:25;10.50;99.90
9949;DHT22;5013;51.840;8.276;2023-02-18T07:56:51;10.50;99.90
9949;DHT22;5013;51.840;8.276;2023-02-18T07:59:17;10.50;99.90
9949;DHT22;5013;51.840;8.276;2023-02-18T08:01:42;10.50;99.90
9949;DHT22;5013;51.840;8.276;2023-02-18T08:04:08;10.60;99.90
9949;DHT22;5013;51.840;8.276;2023-02-18T08:06:39;10.60;99.90
9949;DHT22;5013;51.840;8.276;2023-02-18T08:09:05;10.50;99.90
9949;DHT22;5013;51.840;8.276;2023-02-18T08:11:31;10.50;99.90
9949;DHT22;5013;51.840;8.276;2023-02-18T08:13:57;10.60;99.90
9949;DHT22;5013;51.840;8.276;2023-02-18T08:16:23;10.60;99.90
9949;DHT22;5013;51.840;8.276;2023-02-18T08:18:49;10.60;99.90
9949;DHT22;5013;51.840;8.276;2023-02-18T08:21:17;10.60;99.90
9949;DHT22;5013;51.840;8.276;2023-02-18T08:23:43;10.60;99.90
9949;DHT22;5013;51.840;8.276;2023-02-18T08:26:08;10.60;99.90
9949;DHT22;5013;51.840;8.276;2023-02-18T08:28:35;10.60;99.90
9949;DHT22;5013;51.840;8.276;2023-02-18T08:31:01;10.60;99.90
9949;DHT22;5013;51.840;8.276;2023-02-18T08:33:26;10.60;99.90
9949;DHT22;5013;51.840;8.276;2023-02-18T08:35:53;10.60;99.90
9949;DHT22;5013;51.840;8.276;2023-02-18T08:38:19;10.70;99.90
9949;DHT22;5013;51.840;8.276;2023-02-18T08:40:45;10.70;99.90
9949;DHT22;5013;51.840;8.276;2023-02-18T08:43:12;10.70;99.90
9949;DHT22;5013;51.840;8.276;2023-02-18T08:45:38;10.70;99.90
9949;DHT22;5013;51.840;8.276;2023-02-18T08:48:05;10.60;99.90
9949;DHT22;5013;51.840;8.276;2023-02-18T08:50:32;10.60;99.90
9949;DHT22;5013;51.840;8.276;2023-02-18T08:52:57;10.70;99.90
9949;DHT22;5013;51.840;8.276;2023-02-18T08:55:26;10.60;99.90
9949;DHT22;5013;51.840;8.276;2023-02-18T08:57:52;10.60;99.90
9949;DHT22;5013;51.840;8.276;2023-02-18T09:00:20;10.60;99.90
9949;DHT22;5013;51.840;8.276;2023-02-18T09:02:45;10.70;99.90
9949;DHT22;5013;51.840;8.276;2023-02-18T09:05:13;10.70;99.90
9949;DHT22;5013;51.840;8.276;2023-02-18T09:07:38;10.70;99.90
9949;DHT22;5013;51.840;8.276;2023-02-18T09:10:05;10.70;99.90
9949;DHT22;5013;51.840;8.276;2023-02-18T09:12:32;10.60;99.90
9949;DHT22;5013;51.840;8.276;2023-02-18T09:14:58;10.70;99.90
9949;DHT22;5013;51.840;8.276;2023-02-18T09:17:23;10.70;99.90
9949;DHT22;5013;51.840;8.276;2023-02-18T09:19:49;10.70;99.90
9949;DHT22;5013;51.840;8.276;2023-02-18T09:22:14;10.60;99.90
9949;DHT22;5013;51.840;8.276;2023-02-18T09:24:40;10.60;99.90
9949;DHT22;5013;51.840;8.276;2023-02-18T09:27:06;10.60;99.90
9949;DHT22;5013;51.840;8.276;2023-02-18T09:29:32;10.60;99.90
9949;DHT22;5013;51.840;8.276;2023-02-18T09:32:02;10.50;99.90
9949;DHT22;5013;51.840;8.276;2023-02-18T09:34:28;10.60;99.90
9949;DHT22;5013;51.840;8.276;2023-02-18T09:36:53;10.50;99.90
9949;DHT22;5013;51.840;8.276;2023-02-18T09:39:19;10.60;99.90
9949;DHT22;5013;51.840;8.276;2023-02-18T09:44:38;10.60;99.90
9949;DHT22;5013;51.840;8.276;2023-02-18T09:47:25;10.50;99.90
9949;DHT22;5013;51.840;8.276;2023-02-18T09:49:58;10.50;99.90
9949;DHT22;5013;51.840;8.276;2023-02-18T09:52:27;10.60;99.90
9949;DHT22;5013;51.840;8.276;2023-02-18T09:54:54;10.60;99.90
9949;DHT22;5013;51.840;8.276;2023-02-18T09:57:41;10.60;99.90
9949;DHT22;5013;51.840;8.276;2023-02-18T10:00:34;10.50;99.90
9949;DHT22;5013;51.840;8.276;2023-02-18T10:03:21;10.50;99.90
9949;DHT22;5013;51.840;8.276;2023-02-18T10:06:01;10.50;99.90
9949;DHT22;5013;51.840;8.276;2023-02-18T10:08:44;10.50;99.90
9949;DHT22;5013;51.840;8.276;2023-02-18T10:11:14;10.40;99.90
9949;DHT22;5013;51.840;8.276;2023-02-18T10:13:42;10.40;99.90
9949;DHT22;5013;51.840;8.276;2023-02-18T10:16:08;10.30;99.90
9949;DHT22;5013;51.840;8.276;2023-02-18T10:18:45;10.30;99.90
9949;DHT22;5013;51.840;8.276;2023-02-18T10:21:21;10.30;99.90
9949;DHT22;5013;51.840;8.276;2023-02-18T10:26:23;10.20;99.90
9949;DHT22;5013;51.840;8.276;2023-02-18T10:28:49;10.10;99.90
9949;DHT22;5013;51.840;8.276;2023-02-18T10:31:27;10.10;99.90
9949;DHT22;5013;51.840;8.276;2023-02-18T10:36:57;10.10;99.90
9949;DHT22;5013;51.840;8.276;2023-02-18T10:42:24;10.20;99.90
9949;DHT22;5013;51.840;8.276;2023-02-18T10:45:05;10.20;99.90
9949;DHT22;5013;51.840;8.276;2023-02-18T10:50:29;10.20;99.90
9949;DHT22;5013;51.840;8.276;2023-02-18T10:53:02;10.20;99.90
9949;DHT22;5013;51.840;8.276;2023-02-18T10:55:39;10.10;99.90
9949;DHT22;5013;51.840;8.276;2023-02-18T11:00:54;10.10;99.90
9949;DHT22;5013;51.840;8.276;2023-02-18T11:03:23;10.10;99.90
9949;DHT22;5013;51.840;8.276;2023-02-18T11:05:52;10.10;99.90
9949;DHT22;5013;51.840;8.276;2023-02-18T11:08:23;10.20;99.90
9949;DHT22;5013;51.840;8.276;2023-02-18T11:10:50;10.30;99.90
9949;DHT22;5013;51.840;8.276;2023-02-18T11:13:26;10.30;99.90
9949;DHT22;5013;51.840;8.276;2023-02-18T11:15:56;10.20;99.90
9949;DHT22;5013;51.840;8.276;2023-02-18T11:20:59;10.30;99.90
9949;DHT22;5013;51.840;8.276;2023-02-18T11:23:25;10.30;99.90
9949;DHT22;5013;51.840;8.276;2023-02-18T11:26:12;10.30;99.90
9949;DHT22;5013;51.840;8.276;2023-02-18T11:28:49;10.40;99.90
9949;DHT22;5013;51.840;8.276;2023-02-18T11:31:23;10.30;99.90
9949;DHT22;5013;51.840;8.276;2023-02-18T11:33:53;10.30;99.90
9949;DHT22;5013;51.840;8.276;2023-02-18T11:36:30;10.20;99.90
9949;DHT22;5013;51.840;8.276;2023-02-18T11:39:19;10.30;99.90
9949;DHT22;5013;51.840;8.276;2023-02-18T11:41:47;10.30;99.90
9949;DHT22;5013;51.840;8.276;2023-02-18T11:49:26;10.30;99.90
9949;DHT22;5013;51.840;8.276;2023-02-18T11:51:51;10.20;99.90
9949;DHT22;5013;51.840;8.276;2023-02-18T11:54:27;10.20;99.90
9949;DHT22;5013;51.840;8.276;2023-02-18T11:56:59;10.20;99.90
9949;DHT22;5013;51.840;8.276;2023-02-18T11:59:26;10.10;99.90
9949;DHT22;5013;51.840;8.276;2023-02-18T12:04:40;10.10;99.90
9949;DHT22;5013;51.840;8.276;2023-02-18T12:07:24;10.10;99.90
9949;DHT22;5013;51.840;8.276;2023-02-18T12:09:55;10.10;99.90
9949;DHT22;5013;51.840;8.276;2023-02-18T12:12:29;10.00;99.90
9949;DHT22;5013;51.840;8.276;2023-02-18T12:14:56;10.00;99.90
9949;DHT22;5013;51.840;8.276;2023-02-18T12:17:39;10.00;99.90
9949;DHT22;5013;51.840;8.276;2023-02-18T12:23:05;10.00;99.90
9949;DHT22;5013;51.840;8.276;2023-02-18T12:31:44;10.00;99.90
9949;DHT22;5013;51.840;8.276;2023-02-18T12:39:28;9.90;99.90
9949;DHT22;5013;51.840;8.276;2023-02-18T12:42:26;10.00;99.90
9949;DHT22;5013;51.840;8.276;2023-02-18T12:45:27;9.90;99.90
9949;DHT22;5013;51.840;8.276;2023-02-18T12:58:55;10.00;99.90
9949;DHT22;5013;51.840;8.276;2023-02-18T13:14:47;10.00;99.90
9949;DHT22;5013;51.840;8.276;2023-02-18T13:17:16;10.10;99.90
9949;DHT22;5013;51.840;8.276;2023-02-18T13:19:51;10.00;99.90
9949;DHT22;5013;51.840;8.276;2023-02-18T13:22:21;10.00;99.90
9949;DHT22;5013;51.840;8.276;2023-02-18T13:24:49;10.00;99.90
9949;DHT22;5013;51.840;8.276;2023-02-18T13:27:38;10.00;99.90
9949;DHT22;5013;51.840;8.276;2023-02-18T13:36:30;10.10;99.90
9949;DHT22;5013;51.840;8.276;2023-02-18T13:41:37;10.10;99.90
9949;DHT22;5013;51.840;8.276;2023-02-18T13:44:08;10.10;99.90
9949;DHT22;5013;51.840;8.276;2023-02-18T13:46:50;10.10;99.90
9949;DHT22;5013;51.840;8.276;2023-02-18T13:49:30;10.20;99.90
9949;DHT22;5013;51.840;8.276;2023-02-18T13:51:58;10.30;99.90
9949;DHT22;5013;51.840;8.276;2023-02-18T13:54:44;10.40;99.90
9949;DHT22;5013;51.840;8.276;2023-02-18T13:57:21;10.40;99.90
9949;DHT22;5013;51.840;8.276;2023-02-18T13:59:58;10.30;99.90
9949;DHT22;5013;51.840;8.276;2023-02-18T14:04:57;10.30;99.90
9949;DHT22;5013;51.840;8.276;2023-02-18T14:08:04;10.20;99.90
9949;DHT22;5013;51.840;8.276;2023-02-18T14:10:35;10.20;99.90
9949;DHT22;5013;51.840;8.276;2023-02-18T14:13:19;10.30;99.90
9949;DHT22;5013;51.840;8.276;2023-02-18T14:15:56;10.40;99.90
9949;DHT22;5013;51.840;8.276;2023-02-18T14:20:50;10.30;99.90
9949;DHT22;5013;51.840;8.276;2023-02-18T14:31:22;10.40;99.90
9949;DHT22;5013;51.840;8.276;2023-02-18T14:45:12;10.40;99.90
9949;DHT22;5013;51.840;8.276;2023-02-18T14:48:22;10.40;99.90
9949;DHT22;5013;51.840;8.276;2023-02-18T14:50:52;10.40;99.90
9949;DHT22;5013;51.840;8.276;2023-02-18T14:53:20;10.40;99.90
9949;DHT22;5013;51.840;8.276;2023-02-18T14:55:50;10.40;99.90
9949;DHT22;5013;51.840;8.276;2023-02-18T14:58:24;10.40;99.90
9949;DHT22;5013;51.840;8.276;2023-02-18T15:00:51;10.40;99.90
9949;DHT22;5013;51.840;8.276;2023-02-18T15:03:19;10.50;99.90
9949;DHT22;5013;51.840;8.276;2023-02-18T15:05:50;10.50;99.90
9949;DHT22;5013;51.840;8.276;2023-02-18T15:11:00;10.50;99.90
9949;DHT22;5013;51.840;8.276;2023-02-18T15:16:29;10.50;99.90
9949;DHT22;5013;51.840;8.276;2023-02-18T15:19:01;10.50;99.90
9949;DHT22;5013;51.840;8.276;2023-02-18T15:21:34;10.50;99.90
9949;DHT22;5013;51.840;8.276;2023-02-18T15:24:07;10.50;99.90
9949;DHT22;5013;51.840;8.276;2023-02-18T15:26:36;10.50;99.90
9949;DHT22;5013;51.840;8.276;2023-02-18T15:29:14;10.50;99.90
9949;DHT22;5013;51.840;8.276;2023-02-18T15:31:42;10.50;99.90
9949;DHT22;5013;51.840;8.276;2023-02-18T15:34:34;10.40;99.90
9949;DHT22;5013;51.840;8.276;2023-02-18T15:37:01;10.40;99.90
9949;DHT22;5013;51.840;8.276;2023-02-18T15:39:27;10.40;99.90
9949;DHT22;5013;51.840;8.276;2023-02-18T15:44:54;10.40;99.90
9949;DHT22;5013;51.840;8.276;2023-02-18T15:47:20;10.40;99.90
9949;DHT22;5013;51.840;8.276;2023-02-18T15:49:51;10.30;99.90
9949;DHT22;5013;51.840;8.276;2023-02-18T15:52:28;10.30;99.90
9949;DHT22;5013;51.840;8.276;2023-02-18T15:54:56;10.40;99.90
9949;DHT22;5013;51.840;8.276;2023-02-18T15:57:27;10.40;99.90
9949;DHT22;5013;51.840;8.276;2023-02-18T15:59:58;10.40;99.90
9949;DHT22;5013;51.840;8.276;2023-02-18T16:02:28;10.40;99.90
9949;DHT22;5013;51.840;8.276;2023-02-18T16:04:59;10.50;99.90
9949;DHT22;5013;51.840;8.276;2023-02-18T16:10:16;10.40;99.90
9949;DHT22;5013;51.840;8.276;2023-02-18T16:12:45;10.50;99.90
9949;DHT22;5013;51.840;8.276;2023-02-18T16:15:18;10.40;99.90
9949;DHT22;5013;51.840;8.276;2023-02-18T16:17:45;10.40;99.90
9949;DHT22;5013;51.840;8.276;2023-02-18T16:20:16;10.40;99.90
9949;DHT22;5013;51.840;8.276;2023-02-18T16:22:44;10.50;99.90
9949;DHT22;5013;51.840;8.276;2023-02-18T16:25:14;10.40;99.90
9949;DHT22;5013;51.840;8.276;2023-02-18T16:30:27;10.40;99.90
9949;DHT22;5013;51.840;8.276;2023-02-18T16:32:54;10.40;99.90
9949;DHT22;5013;51.840;8.276;2023-02-18T16:35:21;10.30;99.90
9949;DHT22;5013;51.840;8.276;2023-02-18T16:37:47;10.40;99.90
9949;DHT22;5013;51.840;8.276;2023-02-18T16:40:21;10.40;99.90
9949;DHT22;5013;51.840;8.276;2023-02-18T16:42:46;10.30;99.90
9949;DHT22;5013;51.840;8.276;2023-02-18T16:45:12;10.40;99.90
9949;DHT22;5013;51.840;8.276;2023-02-18T16:47:38;10.40;99.90
9949;DHT22;5013;51.840;8.276;2023-02-18T16:50:05;10.40;99.90
9949;DHT22;5013;51.840;8.276;2023-02-18T16:52:31;10.40;99.90
9949;DHT22;5013;51.840;8.276;2023-02-18T16:54:56;10.30;99.90
9949;DHT22;5013;51.840;8.276;2023-02-18T16:57:22;10.30;99.90
9949;DHT22;5013;51.840;8.276;2023-02-18T16:59:48;10.30;99.90
9949;DHT22;5013;51.840;8.276;2023-02-18T17:02:20;10.40;99.90
9949;DHT22;5013;51.840;8.276;2023-02-18T17:04:46;10.40;99.90
9949;DHT22;5013;51.840;8.276;2023-02-18T17:07:12;10.40;99.90
9949;DHT22;5013;51.840;8.276;2023-02-18T17:09:38;10.30;99.90
9949;DHT22;5013;51.840;8.276;2023-02-18T17:12:03;10.30;99.90
9949;DHT22;5013;51.840;8.276;2023-02-18T17:14:29;10.30;99.90
9949;DHT22;5013;51.840;8.276;2023-02-18T17:16:56;10.30;99.90
9949;DHT22;5013;51.840;8.276;2023-02-18T17:19:23;10.40;99.90
9949;DHT22;5013;51.840;8.276;2023-02-18T17:21:49;10.40;99.90
9949;DHT22;5013;51.840;8.276;2023-02-18T17:24:16;10.40;99.90
9949;DHT22;5013;51.840;8.276;2023-02-18T17:26:42;10.30;99.90
9949;DHT22;5013;51.840;8.276;2023-02-18T17:29:08;10.40;99.90
9949;DHT22;5013;51.840;8.276;2023-02-18T17:31:38;10.30;99.90
9949;DHT22;5013;51.840;8.276;2023-02-18T17:34:07;10.40;99.90
9949;DHT22;5013;51.840;8.276;2023-02-18T17:36:33;10.40;99.90
9949;DHT22;5013;51.840;8.276;2023-02-18T17:38:59;10.40;99.90
9949;DHT22;5013;51.840;8.276;2023-02-18T17:41:25;10.40;99.90
9949;DHT22;5013;51.840;8.276;2023-02-18T17:43:51;10.40;99.90
9949;DHT22;5013;51.840;8.276;2023-02-18T17:46:18;10.40;99.90
9949;DHT22;5013;51.840;8.276;2023-02-18T17:48:44;10.40;99.90
9949;DHT22;5013;51.840;8.276;2023-02-18T17:51:23;10.40;99.90
9949;DHT22;5013;51.840;8.276;2023-02-18T17:53:49;10.40;99.90
9949;DHT22;5013;51.840;8.276;2023-02-18T17:56:15;10.40;99.90
9949;DHT22;5013;51.840;8.276;2023-02-18T17:58:40;10.40;99.90
9949;DHT22;5013;51.840;8.276;2023-02-18T18:01:07;10.40;99.90
9949;DHT22;5013;51.840;8.276;2023-02-18T18:03:33;10.40;99.90
9949;DHT22;5013;51.840;8.276;2023-02-18T18:05:58;10.30;99.90
9949;DHT22;5013;51.840;8.276;2023-02-18T18:08:25;10.40;99.90
9949;DHT22;5013;51.840;8.276;2023-02-18T18:10:53;10.40;99.90
9949;DHT22;5013;51.840;8.276;2023-02-18T18:13:25;10.40;99.90
9949;DHT22;5013;51.840;8.276;2023-02-18T18:15:51;10.40;99.90
9949;DHT22;5013;51.840;8.276;2023-02-18T18:18:17;10.40;99.90
9949;DHT22;5013;51.840;8.276;2023-02-18T18:21:09;10.40;99.90
9949;DHT22;5013;51.840;8.276;2023-02-18T18:23:30;10.40;99.90
9949;DHT22;5013;51.840;8.276;2023-02-18T18:25:58;10.40;99.90
9949;DHT22;5013;51.840;8.276;2023-02-18T18:28:25;10.40;99.90
9949;DHT22;5013;51.840;8.276;2023-02-18T18:30:53;10.40;99.90
9949;DHT22;5013;51.840;8.276;2023-02-18T18:33:22;10.40;99.90
9949;DHT22;5013;51.840;8.276;2023-02-18T18:35:50;10.40;99.90
9949;DHT22;5013;51.840;8.276;2023-02-18T18:38:17;10.40;99.90
9949;DHT22;5013;51.840;8.276;2023-02-18T18:40:44;10.40;99.90
9949;DHT22;5013;51.840;8.276;2023-02-18T18:43:20;10.40;99.90
9949;DHT22;5013;51.840;8.276;2023-02-18T18:45:46;10.40;99.90
9949;DHT22;5013;51.840;8.276;2023-02-18T18:48:13;10.40;99.90
9949;DHT22;5013;51.840;8.276;2023-02-18T18:50:38;10.30;99.90
9949;DHT22;5013;51.840;8.276;2023-02-18T18:53:12;10.40;99.90
9949;DHT22;5013;51.840;8.276;2023-02-18T18:55:38;10.40;99.90
9949;DHT22;5013;51.840;8.276;2023-02-18T18:58:05;10.40;99.90
9949;DHT22;5013;51.840;8.276;2023-02-18T19:00:41;10.40;99.90
9949;DHT22;5013;51.840;8.276;2023-02-18T19:03:10;10.40;99.90
9949;DHT22;5013;51.840;8.276;2023-02-18T19:05:41;10.30;99.90